sensor_id;sensor_type;location;lat;lon;timestamp;temperature;humidity
64143;DHT22;50437;51.970;5.904;2023-03-14T00:02:09;11.80;99.90
64143;DHT22;50437;51.970;5.904;2023-03-14T00:04:35;11.80;99.90
64143;DHT22;50437;51.970;5.904;2023-03-14T00:07:02;11.80;99.90
64143;DHT22;50437;51.970;5.904;2023-03-14T00:09:27;11.80;99.90
64143;DHT22;50437;51.970;5.904;2023-03-14T00:11:55;11.80;99.90
64143;DHT22;50437;51.970;5.904;2023-03-14T00:14:21;11.80;99.90
64143;DHT22;50437;51.970;5.904;2023-03-14T00:16:47;11.70;99.90
64143;DHT22;50437;51.970;5.904;2023-03-14T00:19:14;11.80;99.90
64143;DHT22;50437;51.970;5.904;2023-03-14T00:21:40;11.70;99.90
64143;DHT22;50437;51.970;5.904;2023-03-14T00:24:06;11.80;99.90
64143;DHT22;50437;51.970;5.904;2023-03-14T00:26:32;11.60;99.90
64143;DHT22;50437;51.970;5.904;2023-03-14T00:28:58;11.40;99.90
64143;DHT22;50437;51.970;5.904;2023-03-14T00:31:24;11.30;99.90
64143;DHT22;50437;51.970;5.904;2023-03-14T00:33:51;11.20;99.90
64143;DHT22;50437;51.970;5.904;2023-03-14T00:36:18;11.20;99.90
64143;DHT22;50437;51.970;5.904;2023-03-14T00:38:46;11.10;99.90
64143;DHT22;50437;51.970;5.904;2023-03-14T00:41:14;11.10;99.90
64143;DHT22;50437;51.970;5.904;2023-03-14T00:43:41;11.00;99.90
64143;DHT22;50437;51.970;5.904;2023-03-14T00:46:07;11.00;99.90
64143;DHT22;50437;51.970;5.904;2023-03-14T00:48:33;11.00;99.90
64143;DHT22;50437;51.970;5.904;2023-03-14T00:51:01;11.00;99.90
64143;DHT22;50437;51.970;5.904;2023-03-14T00:53:27;11.00;99.90
64143;DHT22;50437;51.970;5.904;2023-03-14T00:55:52;11.00;99.90
64143;DHT22;50437;51.970;5.904;2023-03-14T00:58:19;10.90;99.90
64143;DHT22;50437;51.970;5.904;2023-03-14T01:00:45;10.90;99.90
64143;DHT22;50437;51.970;5.904;2023-03-14T01:03:12;10.90;99.90
64143;DHT22;50437;51.970;5.904;2023-03-14T01:05:42;10.90;99.90
64143;DHT22;50437;51.970;5.904;2023-03-14T01:08:11;10.90;99.90
64143;DHT22;50437;51.970;5.904;2023-03-14T01:10:38;10.80;99.90
64143;DHT22;50437;51.970;5.904;2023-03-14T01:13:05;10.90;99.90
64143;DHT22;50437;51.970;5.904;2023-03-14T01:15:32;10.80;99.90
64143;DHT22;50437;51.970;5.904;2023-03-14T01:17:58;10.90;99.90
64143;DHT22;50437;51.970;5.904;2023-03-14T01:20:24;10.80;99.90
64143;DHT22;50437;51.970;5.904;2023-03-14T01:22:50;10.80;99.90
64143;DHT22;50437;51.970;5.904;2023-03-14T01:25:16;10.80;99.90
64143;DHT22;50437;51.970;5.904;2023-03-14T01:27:43;10.80;99.90
64143;DHT22;50437;51.970;5.904;2023-03-14T01:30:10;10.80;99.90
64143;DHT22;50437;51.970;5.904;2023-03-14T01:32:38;10.80;99.90
64143;DHT22;50437;51.970;5.904;2023-03-14T01:35:04;10.80;99.90
64143;DHT22;50437;51.970;5.904;2023-03-14T01:37:30;10.90;99.90
64143;DHT22;50437;51.970;5.904;2023-03-14T01:39:56;10.90;99.90
64143;DHT22;50437;51.970;5.904;2023-03-14T01:42:24;10.80;99.90
64143;DHT22;50437;51.970;5.904;2023-03-14T01:44:57;10.80;99.90
64143;DHT22;50437;51.970;5.904;2023-03-14T01:47:23;10.80;99.90
64143;DHT22;50437;51.970;5.904;2023-03-14T01:50:00;10.70;99.90
64143;DHT22;50437;51.970;5.904;2023-03-14T01:52:32;10.70;99.90
64143;DHT22;50437;51.970;5.904;2023-03-14T01:55:35;10.70;99.90
64143;DHT22;50437;51.970;5.904;2023-03-14T01:57:55;10.60;99.90
64143;DHT22;50437;51.970;5.904;2023-03-14T02:00:22;10.60;99.90
64143;DHT22;50437;51.970;5.904;2023-03-14T02:02:50;10.40;99.90
64143;DHT22;50437;51.970;5.904;2023-03-14T02:05:21;10.30;99.90
64143;DHT22;50437;51.970;5.904;2023-03-14T02:08:13;10.10;99.90
64143;DHT22;50437;51.970;5.904;2023-03-14T02:10:48;10.00;99.90
64143;DHT22;50437;51.970;5.904;2023-03-14T02:13:16;9.90;99.90
64143;DHT22;50437;51.970;5.904;2023-03-14T02:15:55;9.90;99.90
64143;DHT22;50437;51.970;5.904;2023-03-14T02:18:37;9.80;99.90
64143;DHT22;50437;51.970;5.904;2023-03-14T02:26:22;9.70;99.90
64143;DHT22;50437;51.970;5.904;2023-03-14T02:28:50;9.60;99.90
64143;DHT22;50437;51.970;5.904;2023-03-14T02:31:16;9.60;99.90
64143;DHT22;50437;51.970;5.904;2023-03-14T02:33:42;9.60;99.90
64143;DHT22;50437;51.970;5.904;2023-03-14T02:36:09;9.50;99.90
64143;DHT22;50437;51.970;5.904;2023-03-14T02:38:43;9.50;99.90
64143;DHT22;50437;51.970;5.904;2023-03-14T02:41:11;9.40;99.90
64143;DHT22;50437;51.970;5.904;2023-03-14T02:43:43;9.40;99.90
64143;DHT22;50437;51.970;5.904;2023-03-14T02:46:16;9.40;99.90
64143;DHT22;50437;51.970;5.904;2023-03-14T02:48:51;9.50;99.90
64143;DHT22;50437;51.970;5.904;2023-03-14T02:51:19;9.50;99.90
64143;DHT22;50437;51.970;5.904;2023-03-14T02:53:47;9.50;99.90
64143;DHT22;50437;51.970;5.904;2023-03-14T02:56:14;9.50;99.90
64143;DHT22;50437;51.970;5.904;2023-03-14T02:58:40;9.50;99.90
64143;DHT22;50437;51.970;5.904;2023-03-14T03:01:31;9.50;99.90
64143;DHT22;50437;51.970;5.904;2023-03-14T03:03:58;9.50;99.90
64143;DHT22;50437;51.970;5.904;2023-03-14T03:06:24;9.50;99.90
64143;DHT22;50437;51.970;5.904;2023-03-14T03:08:50;9.50;99.90
64143;DHT22;50437;51.970;5.904;2023-03-14T03:11:17;9.50;99.90
64143;DHT22;50437;51.970;5.904;2023-03-14T03:13:43;9.50;99.90
64143;DHT22;50437;51.970;5.904;2023-03-14T03:16:09;9.60;99.90
64143;DHT22;50437;51.970;5.904;2023-03-14T03:18:35;9.50;99.90
64143;DHT22;50437;51.970;5.904;2023-03-14T03:21:02;9.50;99.90
64143;DHT22;50437;51.970;5.904;2023-03-14T03:23:29;9.40;99.90
64143;DHT22;50437;51.970;5.904;2023-03-14T03:25:57;9.40;99.90
64143;DHT22;50437;51.970;5.904;2023-03-14T03:28:23;9.40;99.90
64143;DHT22;50437;51.970;5.904;2023-03-14T03:30:51;9.40;99.90
64143;DHT22;50437;51.970;5.904;2023-03-14T03:33:17;9.40;99.90
64143;DHT22;50437;51.970;5.904;2023-03-14T03:35:48;9.50;99.90
64143;DHT22;50437;51.970;5.904;2023-03-14T03:38:17;9.50;99.90
64143;DHT22;50437;51.970;5.904;2023-03-14T03:40:47;9.60;99.90
64143;DHT22;50437;51.970;5.904;2023-03-14T03:43:13;9.60;99.90
64143;DHT22;50437;51.970;5.904;2023-03-14T03:45:42;9.60;99.90
64143;DHT22;50437;51.970;5.904;2023-03-14T03:48:08;9.60;99.90
64143;DHT22;50437;51.970;5.904;2023-03-14T03:50:34;9.60;99.90
64143;DHT22;50437;51.970;5.904;2023-03-14T03:53:00;9.60;99.90
64143;DHT22;50437;51.970;5.904;2023-03-14T03:55:26;9.70;99.90
64143;DHT22;50437;51.970;5.904;2023-03-14T03:57:53;9.70;99.90
64143;DHT22;50437;51.970;5.904;2023-03-14T04:00:19;9.70;99.90
64143;DHT22;50437;51.970;5.904;2023-03-14T04:02:46;9.70;99.90
64143;DHT22;50437;51.970;5.904;2023-03-14T04:05:15;9.70;99.90
64143;DHT22;50437;51.970;5.904;2023-03-14T04:07:48;9.70;99.90
64143;DHT22;50437;51.970;5.904;2023-03-14T04:10:18;9.80;99.90
64143;DHT22;50437;51.970;5.904;2023-03-14T04:13:02;9.80;99.90
64143;DHT22;50437;51.970;5.904;2023-03-14T04:15:30;9.80;99.90
64143;DHT22;50437;51.970;5.904;2023-03-14T04:17:59;9.90;99.90
64143;DHT22;50437;51.970;5.904;2023-03-14T04:20:25;9.80;99.90
64143;DHT22;50437;51.970;5.904;2023-03-14T04:22:52;9.80;99.90
64143;DHT22;50437;51.970;5.904;2023-03-14T04:25:18;9.80;99.90
64143;DHT22;50437;51.970;5.904;2023-03-14T04:27:50;9.90;99.90
64143;DHT22;50437;51.970;5.904;2023-03-14T04:30:21;9.90;99.90
64143;DHT22;50437;51.970;5.904;2023-03-14T04:32:57;9.80;99.90
64143;DHT22;50437;51.970;5.904;2023-03-14T04:35:25;9.90;99.90
64143;DHT22;50437;51.970;5.904;2023-03-14T04:37:55;9.90;99.90
64143;DHT22;50437;51.970;5.904;2023-03-14T04:40:22;9.90;99.90
64143;DHT22;50437;51.970;5.904;2023-03-14T04:42:50;9.90;99.90
64143;DHT22;50437;51.970;5.904;2023-03-14T04:45:17;9.90;99.90
64143;DHT22;50437;51.970;5.904;2023-03-14T04:47:43;9.90;99.90
64143;DHT22;50437;51.970;5.904;2023-03-14T04:50:12;9.90;99.90
64143;DHT22;50437;51.970;5.904;2023-03-14T04:52:39;9.90;99.90
64143;DHT22;50437;51.970;5.904;2023-03-14T04:55:05;9.90;99.90
64143;DHT22;50437;51.970;5.904;2023-03-14T04:57:31;9.90;99.90
64143;DHT22;50437;51.970;5.904;2023-03-14T04:59:58;9.90;99.90
64143;DHT22;50437;51.970;5.904;2023-03-14T05:02:57;10.00;99.90
64143;DHT22;50437;51.970;5.904;2023-03-14T05:05:23;10.00;99.90
64143;DHT22;50437;51.970;5.904;2023-03-14T05:08:02;9.90;99.90
64143;DHT22;50437;51.970;5.904;2023-03-14T05:10:53;10.00;99.90
64143;DHT22;50437;51.970;5.904;2023-03-14T05:13:37;10.00;99.90
64143;DHT22;50437;51.970;5.904;2023-03-14T05:16:15;9.90;99.90
64143;DHT22;50437;51.970;5.904;2023-03-14T05:18:48;9.90;99.90
64143;DHT22;50437;51.970;5.904;2023-03-14T05:21:50;9.90;99.90
64143;DHT22;50437;51.970;5.904;2023-03-14T05:24:27;9.90;99.90
64143;DHT22;50437;51.970;5.904;2023-03-14T05:27:13;9.90;99.90
64143;DHT22;50437;51.970;5.904;2023-03-14T05:30:04;9.90;99.90
64143;DHT22;50437;51.970;5.904;2023-03-14T05:32:41;9.80;99.90
64143;DHT22;50437;51.970;5.904;2023-03-14T05:35:25;9.80;99.90
64143;DHT22;50437;51.970;5.904;2023-03-14T05:38:03;9.80;99.90
64143;DHT22;50437;51.970;5.904;2023-03-14T05:40:57;9.80;99.90
64143;DHT22;50437;51.970;5.904;2023-03-14T05:43:39;9.70;99.90
64143;DHT22;50437;51.970;5.904;2023-03-14T05:46:22;9.70;99.90
64143;DHT22;50437;51.970;5.904;2023-03-14T05:48:55;9.70;99.90
64143;DHT22;50437;51.970;5.904;2023-03-14T05:51:38;9.70;99.90
64143;DHT22;50437;51.970;5.904;2023-03-14T05:54:22;9.70;99.90
64143;DHT22;50437;51.970;5.904;2023-03-14T05:57:07;9.60;99.90
64143;DHT22;50437;51.970;5.904;2023-03-14T05:59:33;9.60;99.90
64143;DHT22;50437;51.970;5.904;2023-03-14T06:02:12;9.60;99.90
64143;DHT22;50437;51.970;5.904;2023-03-14T06:04:49;9.60;99.90
64143;DHT22;50437;51.970;5.904;2023-03-14T06:07:16;9.50;99.90
64143;DHT22;50437;51.970;5.904;2023-03-14T06:09:43;9.50;99.90
64143;DHT22;50437;51.970;5.904;2023-03-14T06:12:09;9.60;99.90
64143;DHT22;50437;51.970;5.904;2023-03-14T06:14:40;9.50;99.90
64143;DHT22;50437;51.970;5.904;2023-03-14T06:17:06;9.50;99.90
64143;DHT22;50437;51.970;5.904;2023-03-14T06:19:39;9.60;99.90
64143;DHT22;50437;51.970;5.904;2023-03-14T06:22:05;9.40;99.90
64143;DHT22;50437;51.970;5.904;2023-03-14T06:24:33;9.50;99.90
64143;DHT22;50437;51.970;5.904;2023-03-14T06:27:18;9.40;99.90
64143;DHT22;50437;51.970;5.904;2023-03-14T06:29:44;9.50;99.90
64143;DHT22;50437;51.970;5.904;2023-03-14T06:32:10;9.40;99.90
64143;DHT22;50437;51.970;5.904;2023-03-14T06:34:37;9.40;99.90
64143;DHT22;50437;51.970;5.904;2023-03-14T06:37:04;9.50;99.90
64143;DHT22;50437;51.970;5.904;2023-03-14T06:39:30;9.50;99.90
64143;DHT22;50437;51.970;5.904;2023-03-14T06:42:04;9.50;99.90
64143;DHT22;50437;51.970;5.904;2023-03-14T06:44:30;9.60;99.90
64143;DHT22;50437;51.970;5.904;2023-03-14T06:46:56;9.50;99.90
64143;DHT22;50437;51.970;5.904;2023-03-14T06:49:22;9.50;99.90
64143;DHT22;50437;51.970;5.904;2023-03-14T06:51:52;9.50;99.90
64143;DHT22;50437;51.970;5.904;2023-03-14T06:54:18;9.50;99.90
64143;DHT22;50437;51.970;5.904;2023-03-14T06:56:44;9.50;99.90
64143;DHT22;50437;51.970;5.904;2023-03-14T06:59:10;9.50;99.90
64143;DHT22;50437;51.970;5.904;2023-03-14T07:01:36;9.50;99.90
64143;DHT22;50437;51.970;5.904;2023-03-14T07:04:08;9.50;99.90
64143;DHT22;50437;51.970;5.904;2023-03-14T07:06:35;9.60;99.90
64143;DHT22;50437;51.970;5.904;2023-03-14T07:09:01;9.60;99.90
64143;DHT22;50437;51.970;5.904;2023-03-14T07:11:28;9.70;99.90
64143;DHT22;50437;51.970;5.904;2023-03-14T07:13:54;9.70;99.90
64143;DHT22;50437;51.970;5.904;2023-03-14T07:16:20;9.80;99.90
64143;DHT22;50437;51.970;5.904;2023-03-14T07:18:46;9.80;99.90
64143;DHT22;50437;51.970;5.904;2023-03-14T07:21:13;9.80;99.90
64143;DHT22;50437;51.970;5.904;2023-03-14T07:23:39;9.70;99.90
64143;DHT22;50437;51.970;5.904;2023-03-14T07:26:08;9.70;99.90
64143;DHT22;50437;51.970;5.904;2023-03-14T07:28:37;9.60;99.90
64143;DHT22;50437;51.970;5.904;2023-03-14T07:31:10;9.60;99.90
64143;DHT22;50437;51.970;5.904;2023-03-14T07:33:38;9.50;99.90
64143;DHT22;50437;51.970;5.904;2023-03-14T07:36:04;9.40;99.90
64143;DHT22;50437;51.970;5.904;2023-03-14T07:38:31;9.20;99.90
64143;DHT22;50437;51.970;5.904;2023-03-14T07:41:15;9.10;99.90
64143;DHT22;50437;51.970;5.904;2023-03-14T07:44:04;9.00;99.90
64143;DHT22;50437;51.970;5.904;2023-03-14T07:46:30;8.90;99.90
64143;DHT22;50437;51.970;5.904;2023-03-14T07:48:56;8.70;99.90
64143;DHT22;50437;51.970;5.904;2023-03-14T07:51:22;8.50;99.90
64143;DHT22;50437;51.970;5.904;2023-03-14T07:53:48;8.40;99.90
64143;DHT22;50437;51.970;5.904;2023-03-14T07:56:14;8.30;99.90
64143;DHT22;50437;51.970;5.904;2023-03-14T07:58:40;8.20;99.90
64143;DHT22;50437;51.970;5.904;2023-03-14T08:01:06;8.30;99.90
64143;DHT22;50437;51.970;5.904;2023-03-14T08:03:31;8.10;99.90
64143;DHT22;50437;51.970;5.904;2023-03-14T08:05:58;8.10;99.90
64143;DHT22;50437;51.970;5.904;2023-03-14T08:08:23;8.00;99.90
64143;DHT22;50437;51.970;5.904;2023-03-14T08:10:49;7.90;99.90
64143;DHT22;50437;51.970;5.904;2023-03-14T08:13:15;7.90;99.90
64143;DHT22;50437;51.970;5.904;2023-03-14T08:15:41;7.90;99.90
64143;DHT22;50437;51.970;5.904;2023-03-14T08:18:07;7.90;99.90
64143;DHT22;50437;51.970;5.904;2023-03-14T08:20:33;7.80;99.90
64143;DHT22;50437;51.970;5.904;2023-03-14T08:23:01;7.90;99.90
64143;DHT22;50437;51.970;5.904;2023-03-14T08:25:27;7.90;99.90
64143;DHT22;50437;51.970;5.904;2023-03-14T08:27:53;8.00;99.90
64143;DHT22;50437;51.970;5.904;2023-03-14T08:30:20;8.00;99.90
64143;DHT22;50437;51.970;5.904;2023-03-14T08:32:46;8.00;99.90
64143;DHT22;50437;51.970;5.904;2023-03-14T08:35:12;8.00;99.90
64143;DHT22;50437;51.970;5.904;2023-03-14T08:37:38;8.10;99.90
64143;DHT22;50437;51.970;5.904;2023-03-14T08:40:04;8.10;99.90
64143;DHT22;50437;51.970;5.904;2023-03-14T08:42:36;7.90;99.90
64143;DHT22;50437;51.970;5.904;2023-03-14T08:45:02;7.80;99.90
64143;DHT22;50437;51.970;5.904;2023-03-14T08:47:28;7.70;99.90
64143;DHT22;50437;51.970;5.904;2023-03-14T08:49:55;7.50;99.90
64143;DHT22;50437;51.970;5.904;2023-03-14T08:52:21;7.30;99.90
64143;DHT22;50437;51.970;5.904;2023-03-14T08:54:47;7.40;99.90
64143;DHT22;50437;51.970;5.904;2023-03-14T08:57:13;7.40;99.90
64143;DHT22;50437;51.970;5.904;2023-03-14T08:59:39;7.30;99.90
64143;DHT22;50437;51.970;5.904;2023-03-14T09:02:05;7.00;99.90
64143;DHT22;50437;51.970;5.904;2023-03-14T09:04:32;6.90;99.90
64143;DHT22;50437;51.970;5.904;2023-03-14T09:07:01;6.80;99.90
64143;DHT22;50437;51.970;5.904;2023-03-14T09:09:27;7.00;99.90
64143;DHT22;50437;51.970;5.904;2023-03-14T09:11:53;7.30;99.90
64143;DHT22;50437;51.970;5.904;2023-03-14T09:14:19;7.50;99.90
64143;DHT22;50437;51.970;5.904;2023-03-14T09:16:45;7.50;99.90
64143;DHT22;50437;51.970;5.904;2023-03-14T09:19:11;7.40;99.90
64143;DHT22;50437;51.970;5.904;2023-03-14T09:21:37;7.00;99.90
64143;DHT22;50437;51.970;5.904;2023-03-14T09:24:04;6.90;99.90
64143;DHT22;50437;51.970;5.904;2023-03-14T09:26:31;6.90;99.90
64143;DHT22;50437;51.970;5.904;2023-03-14T09:28:57;7.00;99.90
64143;DHT22;50437;51.970;5.904;2023-03-14T09:31:23;7.10;99.90
64143;DHT22;50437;51.970;5.904;2023-03-14T09:33:49;7.10;99.90
64143;DHT22;50437;51.970;5.904;2023-03-14T09:36:15;7.00;99.90
64143;DHT22;50437;51.970;5.904;2023-03-14T09:38:42;7.50;99.90
64143;DHT22;50437;51.970;5.904;2023-03-14T09:41:51;7.80;99.90
64143;DHT22;50437;51.970;5.904;2023-03-14T09:46:29;7.70;99.90
64143;DHT22;50437;51.970;5.904;2023-03-14T09:48:57;7.80;99.90
64143;DHT22;50437;51.970;5.904;2023-03-14T09:51:23;8.00;99.90
64143;DHT22;50437;51.970;5.904;2023-03-14T09:53:49;7.80;99.90
64143;DHT22;50437;51.970;5.904;2023-03-14T09:58:49;7.70;99.90
64143;DHT22;50437;51.970;5.904;2023-03-14T10:01:16;7.60;99.90
64143;DHT22;50437;51.970;5.904;2023-03-14T10:03:44;7.40;99.90
64143;DHT22;50437;51.970;5.904;2023-03-14T10:06:11;7.40;99.90
64143;DHT22;50437;51.970;5.904;2023-03-14T10:08:41;7.40;99.90
64143;DHT22;50437;51.970;5.904;2023-03-14T10:11:11;7.80;99.90
64143;DHT22;50437;51.970;5.904;2023-03-14T10:13:46;7.80;99.90
64143;DHT22;50437;51.970;5.904;2023-03-14T10:16:13;8.00;99.90
64143;DHT22;50437;51.970;5.904;2023-03-14T10:18:39;8.30;99.90
64143;DHT22;50437;51.970;5.904;2023-03-14T10:23:48;8.20;99.90
64143;DHT22;50437;51.970;5.904;2023-03-14T10:26:17;8.10;99.90
64143;DHT22;50437;51.970;5.904;2023-03-14T10:28:44;7.80;99.90
64143;DHT22;50437;51.970;5.904;2023-03-14T10:31:10;7.70;99.90
64143;DHT22;50437;51.970;5.904;2023-03-14T10:33:36;7.80;99.90
64143;DHT22;50437;51.970;5.904;2023-03-14T10:36:03;7.90;99.90
64143;DHT22;50437;51.970;5.904;2023-03-14T10:38:32;8.10;99.90
64143;DHT22;50437;51.970;5.904;2023-03-14T10:40:58;7.70;99.90
64143;DHT22;50437;51.970;5.904;2023-03-14T10:43:26;7.80;99.90
64143;DHT22;50437;51.970;5.904;2023-03-14T10:46:13;7.80;99.90
64143;DHT22;50437;51.970;5.904;2023-03-14T10:48:59;7.90;99.90
64143;DHT22;50437;51.970;5.904;2023-03-14T10:51:29;7.90;99.90
64143;DHT22;50437;51.970;5.904;2023-03-14T10:53:57;8.20;99.90
64143;DHT22;50437;51.970;5.904;2023-03-14T10:56:24;8.30;99.90
64143;DHT22;50437;51.970;5.904;2023-03-14T10:58:52;8.50;99.90
64143;DHT22;50437;51.970;5.904;2023-03-14T11:03:49;8.10;99.90
64143;DHT22;50437;51.970;5.904;2023-03-14T11:06:20;7.50;99.90
64143;DHT22;50437;51.970;5.904;2023-03-14T11:11:29;6.80;99.90
64143;DHT22;50437;51.970;5.904;2023-03-14T11:22:05;7.90;99.90
64143;DHT22;50437;51.970;5.904;2023-03-14T11:27:26;8.50;99.90
64143;DHT22;50437;51.970;5.904;2023-03-14T11:29:54;8.80;99.90
64143;DHT22;50437;51.970;5.904;2023-03-14T11:35:20;7.70;99.90
64143;DHT22;50437;51.970;5.904;2023-03-14T11:37:56;7.20;99.90
64143;DHT22;50437;51.970;5.904;2023-03-14T11:40:25;7.50;99.90
64143;DHT22;50437;51.970;5.904;2023-03-14T11:42:58;7.70;99.90
64143;DHT22;50437;51.970;5.904;2023-03-14T11:45:27;8.10;99.90
64143;DHT22;50437;51.970;5.904;2023-03-14T11:48:01;8.40;99.90
64143;DHT22;50437;51.970;5.904;2023-03-14T11:50:29;8.30;99.90
64143;DHT22;50437;51.970;5.904;2023-03-14T11:52:56;8.20;99.90
64143;DHT22;50437;51.970;5.904;2023-03-14T11:55:27;9.20;99.90
64143;DHT22;50437;51.970;5.904;2023-03-14T11:57:57;9.40;99.90
64143;DHT22;50437;51.970;5.904;2023-03-14T12:00:24;9.40;99.90
64143;DHT22;50437;51.970;5.904;2023-03-14T12:03:04;9.90;99.90
64143;DHT22;50437;51.970;5.904;2023-03-14T12:08:22;10.40;99.90
64143;DHT22;50437;51.970;5.904;2023-03-14T12:10:52;10.40;99.90
64143;DHT22;50437;51.970;5.904;2023-03-14T12:13:19;10.30;99.90
64143;DHT22;50437;51.970;5.904;2023-03-14T12:16:01;10.50;99.90
64143;DHT22;50437;51.970;5.904;2023-03-14T12:18:30;10.90;99.90
64143;DHT22;50437;51.970;5.904;2023-03-14T12:20:58;11.40;99.90
64143;DHT22;50437;51.970;5.904;2023-03-14T12:23:25;11.30;99.90
64143;DHT22;50437;51.970;5.904;2023-03-14T12:28:34;10.80;95.90
64143;DHT22;50437;51.970;5.904;2023-03-14T12:42:13;10.00;85.70
64143;DHT22;50437;51.970;5.904;2023-03-14T12:44:42;10.00;84.50
64143;DHT22;50437;51.970;5.904;2023-03-14T12:49:44;9.80;80.30
64143;DHT22;50437;51.970;5.904;2023-03-14T12:52:13;10.00;75.10
64143;DHT22;50437;51.970;5.904;2023-03-14T12:54:42;9.90;79.30
64143;DHT22;50437;51.970;5.904;2023-03-14T13:00:00;10.00;80.60
64143;DHT22;50437;51.970;5.904;2023-03-14T13:02:27;9.80;76.50
64143;DHT22;50437;51.970;5.904;2023-03-14T13:05:01;9.90;75.90
64143;DHT22;50437;51.970;5.904;2023-03-14T13:07:30;10.00;76.70
64143;DHT22;50437;51.970;5.904;2023-03-14T13:16:01;9.60;71.70
64143;DHT22;50437;51.970;5.904;2023-03-14T13:18:15;9.20;72.30
64143;DHT22;50437;51.970;5.904;2023-03-14T13:20:44;9.50;71.10
64143;DHT22;50437;51.970;5.904;2023-03-14T13:23:25;9.60;74.10
64143;DHT22;50437;51.970;5.904;2023-03-14T13:25:51;10.00;76.30
64143;DHT22;50437;51.970;5.904;2023-03-14T13:28:17;10.00;74.10
64143;DHT22;50437;51.970;5.904;2023-03-14T13:30:47;10.00;69.80
64143;DHT22;50437;51.970;5.904;2023-03-14T13:33:13;10.20;72.10
64143;DHT22;50437;51.970;5.904;2023-03-14T13:35:47;10.00;75.60
64143;DHT22;50437;51.970;5.904;2023-03-14T13:38:23;9.90;75.70
64143;DHT22;50437;51.970;5.904;2023-03-14T13:40:50;9.90;70.00
64143;DHT22;50437;51.970;5.904;2023-03-14T13:43:21;9.60;71.30
64143;DHT22;50437;51.970;5.904;2023-03-14T13:45:50;9.50;71.00
64143;DHT22;50437;51.970;5.904;2023-03-14T13:48:16;9.70;68.00
64143;DHT22;50437;51.970;5.904;2023-03-14T13:50:49;9.50;67.00
64143;DHT22;50437;51.970;5.904;2023-03-14T13:53:15;9.90;65.00
64143;DHT22;50437;51.970;5.904;2023-03-14T13:55:41;10.00;65.90
64143;DHT22;50437;51.970;5.904;2023-03-14T13:58:19;9.60;62.40
64143;DHT22;50437;51.970;5.904;2023-03-14T14:00:53;9.10;62.70
64143;DHT22;50437;51.970;5.904;2023-03-14T14:03:19;8.80;60.70
64143;DHT22;50437;51.970;5.904;2023-03-14T14:05:45;8.90;64.60
64143;DHT22;50437;51.970;5.904;2023-03-14T14:08:12;8.70;62.90
64143;DHT22;50437;51.970;5.904;2023-03-14T14:10:38;8.80;65.10
64143;DHT22;50437;51.970;5.904;2023-03-14T14:13:05;9.10;65.40
64143;DHT22;50437;51.970;5.904;2023-03-14T14:15:33;9.20;66.90
64143;DHT22;50437;51.970;5.904;2023-03-14T14:18:06;9.30;63.30
64143;DHT22;50437;51.970;5.904;2023-03-14T14:20:45;9.40;62.50
64143;DHT22;50437;51.970;5.904;2023-03-14T14:23:13;9.60;62.10
64143;DHT22;50437;51.970;5.904;2023-03-14T14:25:39;9.60;60.00
64143;DHT22;50437;51.970;5.904;2023-03-14T14:36:14;9.30;58.90
64143;DHT22;50437;51.970;5.904;2023-03-14T14:38:40;9.20;60.60
64143;DHT22;50437;51.970;5.904;2023-03-14T14:41:10;8.90;54.40
64143;DHT22;50437;51.970;5.904;2023-03-14T14:43:38;8.80;53.60
64143;DHT22;50437;51.970;5.904;2023-03-14T14:46:06;8.90;57.30
64143;DHT22;50437;51.970;5.904;2023-03-14T14:48:35;9.00;55.80
64143;DHT22;50437;51.970;5.904;2023-03-14T14:51:03;8.90;54.00
64143;DHT22;50437;51.970;5.904;2023-03-14T14:53:30;8.80;57.80
64143;DHT22;50437;51.970;5.904;2023-03-14T14:55:58;8.70;58.80
64143;DHT22;50437;51.970;5.904;2023-03-14T15:03:35;8.20;56.70
64143;DHT22;50437;51.970;5.904;2023-03-14T15:06:02;8.00;53.30
64143;DHT22;50437;51.970;5.904;2023-03-14T15:08:28;8.00;51.20
64143;DHT22;50437;51.970;5.904;2023-03-14T15:10:54;8.00;54.90
64143;DHT22;50437;51.970;5.904;2023-03-14T15:13:20;8.10;56.10
64143;DHT22;50437;51.970;5.904;2023-03-14T15:15:46;8.20;56.60
64143;DHT22;50437;51.970;5.904;2023-03-14T15:18:13;8.30;57.10
64143;DHT22;50437;51.970;5.904;2023-03-14T15:20:40;8.20;55.50
64143;DHT22;50437;51.970;5.904;2023-03-14T15:23:12;7.90;55.30
64143;DHT22;50437;51.970;5.904;2023-03-14T15:25:39;7.90;58.90
64143;DHT22;50437;51.970;5.904;2023-03-14T15:28:13;7.90;55.30
64143;DHT22;50437;51.970;5.904;2023-03-14T15:30:40;7.80;56.80
64143;DHT22;50437;51.970;5.904;2023-03-14T15:33:06;7.80;57.30
64143;DHT22;50437;51.970;5.904;2023-03-14T15:35:35;7.80;60.20
64143;DHT22;50437;51.970;5.904;2023-03-14T15:38:01;7.70;58.80
64143;DHT22;50437;51.970;5.904;2023-03-14T15:40:27;7.70;61.20
64143;DHT22;50437;51.970;5.904;2023-03-14T15:42:53;7.70;62.50
64143;DHT22;50437;51.970;5.904;2023-03-14T15:45:19;7.70;61.40
64143;DHT22;50437;51.970;5.904;2023-03-14T15:47:45;7.60;60.90
64143;DHT22;50437;51.970;5.904;2023-03-14T15:50:14;7.50;61.40
64143;DHT22;50437;51.970;5.904;2023-03-14T15:52:40;7.60;64.90
64143;DHT22;50437;51.970;5.904;2023-03-14T15:55:07;7.50;63.10
64143;DHT22;50437;51.970;5.904;2023-03-14T15:57:33;7.50;65.30
64143;DHT22;50437;51.970;5.904;2023-03-14T15:59:59;7.40;64.70
64143;DHT22;50437;51.970;5.904;2023-03-14T16:02:25;7.30;66.20
64143;DHT22;50437;51.970;5.904;2023-03-14T16:04:51;7.20;66.00
64143;DHT22;50437;51.970;5.904;2023-03-14T16:07:17;7.30;69.30
64143;DHT22;50437;51.970;5.904;2023-03-14T16:09:42;7.40;69.70
64143;DHT22;50437;51.970;5.904;2023-03-14T16:12:08;7.00;65.30
64143;DHT22;50437;51.970;5.904;2023-03-14T16:14:34;6.80;67.60
64143;DHT22;50437;51.970;5.904;2023-03-14T16:17:00;6.80;69.10
64143;DHT22;50437;51.970;5.904;2023-03-14T16:19:28;6.70;66.50
64143;DHT22;50437;51.970;5.904;2023-03-14T16:21:56;6.70;66.10
64143;DHT22;50437;51.970;5.904;2023-03-14T16:24:22;6.70;65.50
64143;DHT22;50437;51.970;5.904;2023-03-14T16:26:48;6.60;64.80
64143;DHT22;50437;51.970;5.904;2023-03-14T16:29:14;6.70;63.40
64143;DHT22;50437;51.970;5.904;2023-03-14T16:31:41;6.70;64.00
64143;DHT22;50437;51.970;5.904;2023-03-14T16:34:08;6.60;63.70
64143;DHT22;50437;51.970;5.904;2023-03-14T16:36:34;6.60;63.00
64143;DHT22;50437;51.970;5.904;2023-03-14T16:39:00;6.60;64.40
64143;DHT22;50437;51.970;5.904;2023-03-14T16:41:26;6.60;64.40
64143;DHT22;50437;51.970;5.904;2023-03-14T16:43:56;6.60;64.30
64143;DHT22;50437;51.970;5.904;2023-03-14T16:46:22;6.60;65.00
64143;DHT22;50437;51.970;5.904;2023-03-14T16:48:50;6.50;65.80
64143;DHT22;50437;51.970;5.904;2023-03-14T16:51:16;6.50;63.80
64143;DHT22;50437;51.970;5.904;2023-03-14T16:53:42;6.50;63.20
64143;DHT22;50437;51.970;5.904;2023-03-14T16:56:08;6.50;65.10
64143;DHT22;50437;51.970;5.904;2023-03-14T16:58:35;6.50;63.00
64143;DHT22;50437;51.970;5.904;2023-03-14T17:01:05;6.50;64.60
64143;DHT22;50437;51.970;5.904;2023-03-14T17:03:37;6.50;64.10
64143;DHT22;50437;51.970;5.904;2023-03-14T17:06:04;6.40;62.80
64143;DHT22;50437;51.970;5.904;2023-03-14T17:08:30;6.40;62.00